createdAt,value
2019-01-30T00:01:09.286Z,4.85
2019-01-30T00:03:37.697Z,4.72
2019-01-30T00:06:06.844Z,4.25
2019-01-30T00:08:35.270Z,4.95
2019-01-30T00:11:03.749Z,4.25
2019-01-30T00:13:32.439Z,4.80
2019-01-30T00:16:01.072Z,5.12
2019-01-30T00:18:29.795Z,4.60
2019-01-30T00:20:58.497Z,4.40
2019-01-30T00:23:26.905Z,3.92
2019-01-30T00:25:55.401Z,4.03
2019-01-30T00:28:24.121Z,4.35
2019-01-30T00:30:52.528Z,4.15
2019-01-30T00:33:20.978Z,4.30
2019-01-30T00:35:49.672Z,3.58
2019-01-30T00:38:18.113Z,4.20
2019-01-30T00:40:46.920Z,3.77
2019-01-30T00:43:15.368Z,4.42
2019-01-30T00:45:43.821Z,3.42
2019-01-30T00:48:12.467Z,3.70
2019-01-30T00:50:41.141Z,2.80
2019-01-30T00:53:09.847Z,3.83
2019-01-30T00:55:38.649Z,3.40
2019-01-30T00:58:07.151Z,3.00
2019-01-30T01:00:35.967Z,3.70
2019-01-30T01:03:04.641Z,3.17
2019-01-30T01:05:33.125Z,3.20
2019-01-30T01:08:01.896Z,3.37
2019-01-30T01:10:30.554Z,4.00
2019-01-30T01:12:58.970Z,3.00
2019-01-30T01:15:27.476Z,3.83
2019-01-30T01:17:55.877Z,3.35
2019-01-30T01:20:24.361Z,3.08
2019-01-30T01:22:52.778Z,3.20
2019-01-30T01:25:21.190Z,2.98
2019-01-30T01:27:49.929Z,3.60
2019-01-30T01:30:26.589Z,3.40
2019-01-30T01:32:55.491Z,2.40
2019-01-30T01:35:24.042Z,3.12
2019-01-30T01:37:52.705Z,2.12
2019-01-30T01:40:21.122Z,2.05
2019-01-30T01:42:49.794Z,2.95
2019-01-30T01:45:20.438Z,2.42
2019-01-30T01:47:48.934Z,2.45
2019-01-30T01:50:19.278Z,3.20
2019-01-30T01:52:47.812Z,2.35
2019-01-30T01:55:16.479Z,2.58
2019-01-30T01:57:45.210Z,2.87
2019-01-30T02:00:16.703Z,2.47
2019-01-30T02:02:45.200Z,3.22
2019-01-30T02:05:19.925Z,1.92
2019-01-30T02:07:48.410Z,2.70
2019-01-30T02:10:26.376Z,2.87
2019-01-30T02:12:55.390Z,2.30
2019-01-30T02:15:24.209Z,3.05
2019-01-30T02:17:53.543Z,2.25
2019-01-30T02:20:24.770Z,2.60
2019-01-30T02:22:53.492Z,2.12
2019-01-30T02:25:21.939Z,3.12
2019-01-30T02:27:50.621Z,3.30
2019-01-30T02:30:21.576Z,2.35
2019-01-30T02:32:50.168Z,2.30
2019-01-30T02:35:18.642Z,2.77
2019-01-30T02:37:47.382Z,2.70
2019-01-30T02:40:17.772Z,2.85
2019-01-30T02:42:46.188Z,2.60
2019-01-30T02:45:23.358Z,2.92
2019-01-30T02:47:51.851Z,2.47
2019-01-30T02:50:20.757Z,1.62
2019-01-30T02:52:49.615Z,2.85
2019-01-30T02:55:19.358Z,2.00
2019-01-30T02:57:47.944Z,2.58
2019-01-30T03:00:25.219Z,2.50
2019-01-30T03:02:53.715Z,2.70
2019-01-30T03:05:22.120Z,2.30
2019-01-30T03:07:50.807Z,2.77
2019-01-30T03:10:21.045Z,2.87
2019-01-30T03:12:49.520Z,2.77
2019-01-30T03:15:18.980Z,2.80
2019-01-30T03:17:47.663Z,2.55
2019-01-30T03:20:21.136Z,1.92
2019-01-30T03:22:49.621Z,2.45
2019-01-30T03:25:19.873Z,2.15
2019-01-30T03:27:48.552Z,2.45
2019-01-30T03:30:19.641Z,2.45
2019-01-30T03:32:48.322Z,2.50
2019-01-30T03:35:16.893Z,2.55
2019-01-30T03:37:45.319Z,2.40
2019-01-30T03:40:16.104Z,1.90
2019-01-30T03:42:44.555Z,2.62
2019-01-30T03:45:15.578Z,2.52
2019-01-30T03:47:43.986Z,2.25
2019-01-30T03:50:13.945Z,3.00
2019-01-30T03:52:42.618Z,2.40
2019-01-30T03:55:16.275Z,2.25
2019-01-30T03:57:44.906Z,2.37
2019-01-30T04:00:19.393Z,2.45
2019-01-30T04:02:48.041Z,2.52
2019-01-30T04:05:16.470Z,2.87
2019-01-30T04:07:44.873Z,2.77
2019-01-30T04:10:21.592Z,2.45
2019-01-30T04:12:50.085Z,2.80
2019-01-30T04:15:18.570Z,2.40
2019-01-30T04:17:47.212Z,2.10
2019-01-30T04:20:17.938Z,2.75
2019-01-30T04:22:46.616Z,2.47
2019-01-30T04:25:15.102Z,2.02
2019-01-30T04:27:43.514Z,2.80
2019-01-30T04:30:14.890Z,2.83
2019-01-30T04:32:43.299Z,2.60
2019-01-30T04:35:11.864Z,2.58
2019-01-30T04:37:40.278Z,2.37
2019-01-30T04:40:12.141Z,3.00
2019-01-30T04:42:40.557Z,2.70
2019-01-30T04:45:12.900Z,2.75
2019-01-30T04:47:41.557Z,2.70
2019-01-30T04:50:10.053Z,2.67
2019-01-30T04:52:38.476Z,2.42
2019-01-30T04:55:09.066Z,3.00
2019-01-30T04:57:37.495Z,2.98
2019-01-30T05:00:12.440Z,3.35
2019-01-30T05:02:40.890Z,2.42
2019-01-30T05:05:11.039Z,2.72
2019-01-30T05:07:39.738Z,2.90
2019-01-30T05:10:10.828Z,2.65
2019-01-30T05:12:39.462Z,3.15
2019-01-30T05:15:11.373Z,3.00
2019-01-30T05:17:39.981Z,3.00
2019-01-30T05:20:11.780Z,3.17
2019-01-30T05:22:40.454Z,3.00
2019-01-30T05:25:10.297Z,3.20
2019-01-30T05:27:38.942Z,2.92
2019-01-30T05:30:13.210Z,3.15
2019-01-30T05:32:41.887Z,3.72
2019-01-30T05:35:10.328Z,3.15
2019-01-30T05:37:39.059Z,2.62
2019-01-30T05:40:10.615Z,3.05
2019-01-30T05:42:39.064Z,2.27
2019-01-30T05:45:10.682Z,2.27
2019-01-30T05:47:39.097Z,2.15
2019-01-30T05:50:09.552Z,3.17
2019-01-30T05:52:38.215Z,3.35
2019-01-30T05:55:09.034Z,2.77
2019-01-30T05:57:37.487Z,3.00
2019-01-30T06:00:09.222Z,3.17
2019-01-30T06:02:37.647Z,2.75
2019-01-30T06:05:06.738Z,2.20
2019-01-30T06:07:35.161Z,2.33
2019-01-30T06:10:05.067Z,2.35
2019-01-30T06:12:33.489Z,2.87
2019-01-30T06:15:01.915Z,2.05
2019-01-30T06:17:30.333Z,2.35
2019-01-30T06:19:58.776Z,2.37
2019-01-30T06:22:27.414Z,2.15
2019-01-30T06:24:56.134Z,1.98
2019-01-30T06:27:24.590Z,1.72
2019-01-30T06:29:53.038Z,1.95
2019-01-30T06:32:22.204Z,1.77
2019-01-30T06:34:50.804Z,1.82
2019-01-30T06:37:22.731Z,1.70
2019-01-30T06:39:57.377Z,2.15
2019-01-30T06:42:25.824Z,1.70
2019-01-30T06:44:54.230Z,1.75
2019-01-30T06:47:22.663Z,2.90
2019-01-30T06:49:51.079Z,1.37
2019-01-30T06:52:19.521Z,1.95
2019-01-30T06:54:48.166Z,2.20
2019-01-30T06:57:16.617Z,1.95
2019-01-30T06:59:45.033Z,2.10
2019-01-30T07:02:13.442Z,1.90
2019-01-30T07:04:41.873Z,2.15
2019-01-30T07:07:10.289Z,2.33
2019-01-30T07:09:38.977Z,1.85
2019-01-30T07:12:07.425Z,1.70
2019-01-30T07:14:36.574Z,1.50
2019-01-30T07:17:04.977Z,2.30
2019-01-30T07:19:33.401Z,1.95
2019-01-30T07:22:01.818Z,1.82
2019-01-30T07:24:30.242Z,2.02
2019-01-30T07:26:58.910Z,2.12
2019-01-30T07:29:27.358Z,1.65
2019-01-30T07:31:55.764Z,2.25
2019-01-30T07:34:24.191Z,1.90
2019-01-30T07:36:52.611Z,2.10
2019-01-30T07:39:21.029Z,2.05
2019-01-30T07:41:49.437Z,2.87
2019-01-30T07:44:17.859Z,1.77
2019-01-30T07:46:46.269Z,2.00
2019-01-30T07:49:14.932Z,2.33
2019-01-30T07:51:43.388Z,2.35
2019-01-30T07:54:11.838Z,2.00
2019-01-30T07:56:40.250Z,1.67
2019-01-30T07:59:08.678Z,2.12
2019-01-30T08:01:37.339Z,1.80
2019-01-30T08:04:05.834Z,2.60
2019-01-30T08:06:34.250Z,2.00
2019-01-30T08:09:03.712Z,1.85
2019-01-30T08:11:33.061Z,1.75
2019-01-30T08:14:02.109Z,2.20
2019-01-30T08:16:30.687Z,1.75
2019-01-30T08:18:59.143Z,1.75
2019-01-30T08:21:28.035Z,1.75
2019-01-30T08:23:57.044Z,2.22
2019-01-30T08:26:25.847Z,2.08
2019-01-30T08:28:55.031Z,2.05
2019-01-30T08:31:23.549Z,2.50
2019-01-30T08:33:51.989Z,2.40
2019-01-30T08:36:20.663Z,1.90
2019-01-30T08:38:49.343Z,2.62
2019-01-30T08:41:17.761Z,1.80
2019-01-30T08:43:46.189Z,2.30
2019-01-30T08:46:14.618Z,2.33
2019-01-30T08:48:43.039Z,1.95
2019-01-30T08:51:11.523Z,1.55
2019-01-30T08:53:40.492Z,2.17
2019-01-30T08:56:09.342Z,1.55
2019-01-30T08:58:37.819Z,1.70
2019-01-30T09:01:06.337Z,2.15
2019-01-30T09:03:34.768Z,2.22
2019-01-30T09:06:03.199Z,2.30
2019-01-30T09:08:31.627Z,2.50
2019-01-30T09:11:00.365Z,2.60
2019-01-30T09:13:28.823Z,2.08
2019-01-30T09:15:57.268Z,2.30
2019-01-30T09:18:25.686Z,2.58
2019-01-30T09:20:54.123Z,2.33
2019-01-30T09:23:22.897Z,2.62
2019-01-30T09:25:51.325Z,2.37
2019-01-30T09:28:24.191Z,1.87
2019-01-30T09:30:52.686Z,2.10
2019-01-30T09:33:25.875Z,2.42
2019-01-30T09:35:51.666Z,1.77
2019-01-30T09:38:20.338Z,2.60
2019-01-30T09:40:48.802Z,2.85
2019-01-30T09:43:17.214Z,1.98
2019-01-30T09:45:45.667Z,1.80
2019-01-30T09:48:14.360Z,2.55
2019-01-30T09:50:42.799Z,2.33
2019-01-30T09:53:11.243Z,2.67
2019-01-30T09:55:39.675Z,2.75
2019-01-30T09:58:08.261Z,2.83
2019-01-30T10:00:38.430Z,3.05
2019-01-30T10:03:07.165Z,2.80
2019-01-30T10:05:35.630Z,2.30
2019-01-30T10:08:04.832Z,2.95
2019-01-30T10:10:35.294Z,3.40
2019-01-30T10:13:04.464Z,2.02
2019-01-30T10:15:35.527Z,2.60
2019-01-30T10:18:04.261Z,3.20
2019-01-30T10:20:34.030Z,2.92
2019-01-30T10:23:02.466Z,3.02
2019-01-30T10:25:31.215Z,2.20
2019-01-30T10:27:59.736Z,2.67
2019-01-30T10:30:36.527Z,2.50
2019-01-30T10:33:05.605Z,2.70
2019-01-30T10:35:34.438Z,3.30
2019-01-30T10:38:03.039Z,2.42
2019-01-30T10:40:31.526Z,2.60
2019-01-30T10:43:00.039Z,2.70
2019-01-30T10:45:28.547Z,2.57
2019-01-30T10:47:57.069Z,3.90
2019-01-30T10:50:30.335Z,2.00
2019-01-30T10:52:58.827Z,3.07
2019-01-30T10:55:29.481Z,2.13
2019-01-30T10:58:00.007Z,2.27
2019-01-30T11:00:31.595Z,2.67
2019-01-30T11:03:00.023Z,2.33
2019-01-30T11:05:29.310Z,2.70
2019-01-30T11:07:57.811Z,3.30
2019-01-30T11:10:26.227Z,2.90
2019-01-30T11:12:54.985Z,2.30
2019-01-30T11:15:26.499Z,2.07
2019-01-30T11:17:55.253Z,2.80
2019-01-30T11:20:23.703Z,2.90
2019-01-30T11:22:53.655Z,2.43
2019-01-30T11:25:37.563Z,2.40
2019-01-30T11:28:06.067Z,2.30
2019-01-30T11:30:35.129Z,2.40
2019-01-30T11:33:04.593Z,2.30
2019-01-30T11:35:33.455Z,2.50
2019-01-30T11:38:02.102Z,2.23
2019-01-30T11:40:30.571Z,2.53
2019-01-30T11:42:59.063Z,2.43
2019-01-30T11:45:33.123Z,1.70
2019-01-30T11:48:01.619Z,2.30
2019-01-30T11:50:30.116Z,1.80
2019-01-30T11:52:58.980Z,2.30
2019-01-30T11:55:27.736Z,2.97
2019-01-30T11:57:56.198Z,2.70
2019-01-30T12:00:29.021Z,2.50
2019-01-30T12:02:57.679Z,1.70
2019-01-30T12:05:26.174Z,2.00
2019-01-30T12:07:54.701Z,1.80
2019-01-30T12:10:23.505Z,1.30
2019-01-30T12:12:53.266Z,1.50
2019-01-30T12:15:23.833Z,1.60
2019-01-30T12:17:52.251Z,1.50
2019-01-30T12:20:20.695Z,1.10
2019-01-30T12:22:49.412Z,1.30
2019-01-30T12:25:19.618Z,1.30
2019-01-30T12:27:50.709Z,1.30
2019-01-30T12:30:28.770Z,1.13
2019-01-30T12:32:57.461Z,1.10
2019-01-30T12:35:26.262Z,1.20
2019-01-30T12:37:54.704Z,1.10
2019-01-30T12:40:24.461Z,2.27
2019-01-30T12:42:53.231Z,1.07
2019-01-30T12:45:33.703Z,3.27
2019-01-30T12:48:02.110Z,3.60
2019-01-30T12:50:30.912Z,5.23
2019-01-30T12:52:59.375Z,2.80
2019-01-30T12:55:29.531Z,4.90
2019-01-30T12:57:58.180Z,3.07
2019-01-30T13:00:29.692Z,1.50
2019-01-30T13:02:58.231Z,4.93
2019-01-30T13:05:28.454Z,2.10
2019-01-30T13:07:56.894Z,2.20
2019-01-30T13:10:25.497Z,2.10
2019-01-30T13:12:53.975Z,2.80
2019-01-30T13:15:27.366Z,1.50
2019-01-30T13:17:56.086Z,2.10
2019-01-30T13:20:24.978Z,1.33
2019-01-30T13:22:53.595Z,1.60
2019-01-30T13:25:24.219Z,1.17
2019-01-30T13:27:52.718Z,1.47
2019-01-30T13:30:23.698Z,1.30
2019-01-30T13:32:52.478Z,1.07
2019-01-30T13:35:21.010Z,1.23
2019-01-30T13:37:49.693Z,1.30
2019-01-30T13:40:20.974Z,1.30
2019-01-30T13:42:49.406Z,1.00
2019-01-30T13:45:17.817Z,0.80
2019-01-30T13:47:46.535Z,1.10
2019-01-30T13:50:20.537Z,1.07
2019-01-30T13:52:49.265Z,0.90
2019-01-30T13:55:17.790Z,0.70
2019-01-30T13:57:46.247Z,0.80
2019-01-30T14:00:26.532Z,0.60
2019-01-30T14:02:55.095Z,0.70
2019-01-30T14:05:23.580Z,0.90
2019-01-30T14:07:52.525Z,0.60
2019-01-30T14:10:21.071Z,0.60
2019-01-30T14:12:49.533Z,0.67
2019-01-30T14:15:20.649Z,0.77
2019-01-30T14:17:49.377Z,0.47
2019-01-30T14:20:18.502Z,0.50
2019-01-30T14:22:47.280Z,0.50
2019-01-30T14:25:16.902Z,0.43
2019-01-30T14:27:45.910Z,0.40
2019-01-30T14:30:22.708Z,0.50
2019-01-30T14:32:51.433Z,0.43
2019-01-30T14:35:19.985Z,0.40
2019-01-30T14:37:48.434Z,0.63
2019-01-30T14:40:19.583Z,0.50
2019-01-30T14:42:48.149Z,0.50
2019-01-30T14:45:18.377Z,0.47
2019-01-30T14:47:48.858Z,0.40
2019-01-30T14:50:19.429Z,0.40
2019-01-30T14:52:48.054Z,0.70
2019-01-30T14:55:17.303Z,0.40
2019-01-30T14:57:46.390Z,0.40
2019-01-30T15:00:27.117Z,0.50
2019-01-30T15:02:55.923Z,0.40
2019-01-30T15:05:25.630Z,0.50
2019-01-30T15:07:54.122Z,0.40
2019-01-30T15:10:24.087Z,0.50
2019-01-30T15:12:52.795Z,0.50
2019-01-30T15:15:26.057Z,0.40
2019-01-30T15:17:54.540Z,0.50
2019-01-30T15:20:24.872Z,0.50
2019-01-30T15:22:53.464Z,0.50
2019-01-30T15:25:23.442Z,0.43
2019-01-30T15:27:51.858Z,0.30
2019-01-30T15:30:26.203Z,0.40
2019-01-30T15:32:54.905Z,0.37
2019-01-30T15:35:33.233Z,0.40
2019-01-30T15:37:53.858Z,0.40
2019-01-30T15:40:25.359Z,0.40
2019-01-30T15:42:53.782Z,0.42
2019-01-30T15:45:24.073Z,0.30
2019-01-30T15:47:52.549Z,0.40
2019-01-30T15:50:26.005Z,0.40
2019-01-30T15:52:55.212Z,0.40
2019-01-30T15:55:23.741Z,0.40
2019-01-30T15:57:55.164Z,0.50
2019-01-30T16:00:35.395Z,0.40
2019-01-30T16:03:03.987Z,0.50
2019-01-30T16:05:32.428Z,0.40
2019-01-30T16:08:00.855Z,0.60
2019-01-30T16:10:29.298Z,0.40
2019-01-30T16:12:57.773Z,0.40
2019-01-30T16:15:42.903Z,0.40
2019-01-30T16:18:11.313Z,0.50
2019-01-30T16:20:39.755Z,0.40
2019-01-30T16:23:08.182Z,0.60
2019-01-30T16:25:36.658Z,0.60
2019-01-30T16:28:06.187Z,0.75
2019-01-30T16:30:34.691Z,0.70
2019-01-30T16:33:03.137Z,0.40
2019-01-30T16:35:33.071Z,0.50
2019-01-30T16:38:01.828Z,0.70
2019-01-30T16:40:30.283Z,0.78
2019-01-30T16:42:58.728Z,0.40
2019-01-30T16:45:31.790Z,0.42
2019-01-30T16:48:00.287Z,0.40
2019-01-30T16:50:28.787Z,0.40
2019-01-30T16:52:57.282Z,0.42
2019-01-30T16:55:25.794Z,0.50
2019-01-30T16:57:54.252Z,0.40
2019-01-30T17:00:33.082Z,0.40
2019-01-30T17:03:02.725Z,0.50
2019-01-30T17:05:31.831Z,0.50
2019-01-30T17:08:00.278Z,0.50
2019-01-30T17:10:28.794Z,0.40
2019-01-30T17:12:57.314Z,0.50
2019-01-30T17:15:31.593Z,1.35
2019-01-30T17:18:00.124Z,0.93
2019-01-30T17:20:31.036Z,0.60
2019-01-30T17:22:59.446Z,1.10
2019-01-30T17:25:28.059Z,0.50
2019-01-30T17:27:56.623Z,0.85
2019-01-30T17:30:28.182Z,0.68
2019-01-30T17:32:56.620Z,0.70
2019-01-30T17:35:25.072Z,0.72
2019-01-30T17:37:53.495Z,0.60
2019-01-30T17:40:24.326Z,0.50
2019-01-30T17:42:52.786Z,0.70
2019-01-30T17:45:21.218Z,1.27
2019-01-30T17:47:49.718Z,0.60
2019-01-30T17:50:26.175Z,0.70
2019-01-30T17:52:54.620Z,0.42
2019-01-30T17:55:26.066Z,0.55
2019-01-30T17:57:53.289Z,0.90
2019-01-30T18:00:31.950Z,0.40
2019-01-30T18:03:00.419Z,0.40
2019-01-30T18:05:28.843Z,0.60
2019-01-30T18:07:57.280Z,0.60
2019-01-30T18:10:25.754Z,0.57
2019-01-30T18:12:54.423Z,0.50
2019-01-30T18:15:22.855Z,0.45
2019-01-30T18:17:54.183Z,0.50
2019-01-30T18:20:22.620Z,0.40
2019-01-30T18:22:51.074Z,0.50
2019-01-30T18:25:22.295Z,0.60
2019-01-30T18:27:50.797Z,0.85
2019-01-30T18:30:23.260Z,0.40
2019-01-30T18:32:51.861Z,0.88
2019-01-30T18:35:20.563Z,0.60
2019-01-30T18:37:49.045Z,0.60
2019-01-30T18:40:28.242Z,0.53
2019-01-30T18:42:56.699Z,0.50
2019-01-30T18:45:26.541Z,0.60
2019-01-30T18:47:55.777Z,0.68
2019-01-30T18:50:30.658Z,0.70
2019-01-30T18:52:59.520Z,0.65
2019-01-30T18:55:30.922Z,0.50
2019-01-30T18:57:58.219Z,0.80
2019-01-30T19:00:31.763Z,0.60
2019-01-30T19:03:01.533Z,0.70
2019-01-30T19:05:31.095Z,0.80
2019-01-30T19:07:59.670Z,1.00
2019-01-30T19:10:28.172Z,0.50
2019-01-30T19:12:56.598Z,0.95
2019-01-30T19:15:27.389Z,0.70
2019-01-30T19:17:56.123Z,0.60
2019-01-30T19:20:36.500Z,1.00
2019-01-30T19:23:06.984Z,0.68
2019-01-30T19:25:35.420Z,0.70
2019-01-30T19:28:04.413Z,0.60
2019-01-30T19:30:33.297Z,0.40
2019-01-30T19:33:01.794Z,0.98
2019-01-30T19:35:30.237Z,0.78
2019-01-30T19:37:58.758Z,0.85
2019-01-30T19:40:27.179Z,0.55
2019-01-30T19:42:55.607Z,0.70
2019-01-30T19:45:25.754Z,0.80
2019-01-30T19:47:54.171Z,0.80
2019-01-30T19:50:24.835Z,0.90
2019-01-30T19:52:53.548Z,1.10
2019-01-30T19:55:22.014Z,1.32
2019-01-30T19:57:50.447Z,1.17
2019-01-30T20:00:24.107Z,0.70
2019-01-30T20:02:52.549Z,0.68
2019-01-30T20:05:21.190Z,0.90
2019-01-30T20:07:49.606Z,1.10
2019-01-30T20:10:23.620Z,1.15
2019-01-30T20:12:52.240Z,1.30
2019-01-30T20:15:20.735Z,1.20
2019-01-30T20:17:49.183Z,1.15
2019-01-30T20:20:20.986Z,1.05
2019-01-30T20:22:48.859Z,0.78
2019-01-30T20:25:20.062Z,1.15
2019-01-30T20:27:48.571Z,1.02
2019-01-30T20:30:19.377Z,0.95
2019-01-30T20:32:48.072Z,1.10
2019-01-30T20:35:16.890Z,1.07
2019-01-30T20:37:45.367Z,0.93
2019-01-30T20:40:16.433Z,0.78
2019-01-30T20:42:45.199Z,1.72
2019-01-30T20:45:15.177Z,1.22
2019-01-30T20:47:43.592Z,0.75
2019-01-30T20:50:17.162Z,1.20
2019-01-30T20:52:45.637Z,0.80
2019-01-30T20:55:16.748Z,1.30
2019-01-30T20:57:45.334Z,0.70
2019-01-30T21:00:16.930Z,0.95
2019-01-30T21:02:45.429Z,0.68
2019-01-30T21:05:14.146Z,1.20
2019-01-30T21:07:42.634Z,0.50
2019-01-30T21:10:19.692Z,0.80
2019-01-30T21:12:48.093Z,0.80
2019-01-30T21:15:17.454Z,0.85
2019-01-30T21:17:45.861Z,0.72
2019-01-30T21:20:17.780Z,1.20
2019-01-30T21:22:46.370Z,0.80
2019-01-30T21:25:17.239Z,0.80
2019-01-30T21:27:45.644Z,0.95
2019-01-30T21:30:25.417Z,0.70
2019-01-30T21:32:53.820Z,0.80
2019-01-30T21:35:22.270Z,0.70
2019-01-30T21:37:50.672Z,0.70
2019-01-30T21:40:19.933Z,0.80
2019-01-30T21:42:49.009Z,1.42
2019-01-30T21:45:22.517Z,1.10
2019-01-30T21:47:50.995Z,0.70
2019-01-30T21:50:20.148Z,0.88
2019-01-30T21:52:48.708Z,1.17
2019-01-30T21:55:19.383Z,0.90
2019-01-30T21:57:48.037Z,1.40
2019-01-30T22:00:21.337Z,0.57
2019-01-30T22:02:49.753Z,1.47
2019-01-30T22:05:18.498Z,0.98
2019-01-30T22:07:47.013Z,1.07
2019-01-30T22:10:17.686Z,0.82
2019-01-30T22:12:46.093Z,0.85
2019-01-30T22:15:16.160Z,0.75
2019-01-30T22:17:44.651Z,0.70
2019-01-30T22:20:18.554Z,0.93
2019-01-30T22:22:46.971Z,0.55
2019-01-30T22:25:20.878Z,1.25
2019-01-30T22:27:49.556Z,0.68
2019-01-30T22:30:20.341Z,0.80
2019-01-30T22:32:48.831Z,1.00
2019-01-30T22:35:17.313Z,0.78
2019-01-30T22:37:45.726Z,1.20
2019-01-30T22:40:15.278Z,0.90
2019-01-30T22:42:43.759Z,1.30
2019-01-30T22:45:40.182Z,1.00
2019-01-30T22:48:08.851Z,0.90
2019-01-30T22:50:37.305Z,1.57
2019-01-30T22:53:05.747Z,1.32
2019-01-30T22:55:34.177Z,1.37
2019-01-30T22:58:02.585Z,1.20
2019-01-30T23:00:53.758Z,1.25
2019-01-30T23:03:25.262Z,1.92
2019-01-30T23:06:13.819Z,2.15
2019-01-30T23:08:51.141Z,1.62
2019-01-30T23:11:22.620Z,1.40
2019-01-30T23:13:53.950Z,1.80
2019-01-30T23:16:42.113Z,1.25
2019-01-30T23:19:22.344Z,1.42
2019-01-30T23:22:03.026Z,1.30
2019-01-30T23:24:37.194Z,1.57
2019-01-30T23:27:11.669Z,1.12
2019-01-30T23:29:52.270Z,0.90
2019-01-30T23:32:29.360Z,0.90
2019-01-30T23:35:17.869Z,0.90
2019-01-30T23:37:52.932Z,1.40
2019-01-30T23:40:30.778Z,1.17
2019-01-30T23:43:05.538Z,1.20
2019-01-30T23:45:55.511Z,1.00
2019-01-30T23:48:48.103Z,0.80
2019-01-30T23:51:24.806Z,1.10
2019-01-30T23:54:14.435Z,0.65
2019-01-30T23:57:12.017Z,0.93
